Weather at Bucharest Henri Coandă International Airport

Public forecast

Using degrees Celsius for public forecast. Weather courtesy of forecast.io.

Current aviation weather report (METAR) for Bucharest Henri Coandă International Airport

2024/05/19 08:30 (retrieved 19 minutes ago)

LROP 190830Z 07009KT CAVOK 17/12 Q1017 NOSIG

Aviation forecast (TAF) for Bucharest Henri Coandă International Airport

2024/05/19 06:33 (retrieved 2 hours ago)

TAF LROP 190500Z 1906/2006 08008KT 5000 BR BKN002 BECMG 1906/1908 9999 NSW BKN010 BECMG 1908/1910 SCT015 SCT030 TEMPO 1910/1914 5000 -RA TEMPO 2000/2005 3000 BR